Terminal Aerodrome Forecast
Issued by NWS North Platte, NE

Home | Current Version | Previous Version | Graphics & Text | Print | Product List | Glossary On
Versions: 1 2 3 4 5 6 7 8 9 10 11 12 13 14 15 16
000
FTUS43 KLBF 090523
TAFVTN
TAF
KVTN 090523Z 0906/1006 30010G18KT P6SM SCT090 BKN120
     FM091500 29006KT P6SM SKC
     FM091600 30010G20KT P6SM SKC
     FM100200 28010KT P6SM SKC=

USA.gov is the U.S. government's official web portal to all federal, state and local government web resources and services.